sensor_id;sensor_type;location;lat;lon;timestamp;P1;durP1;ratioP1;P2;durP2;ratioP2
44272;SDS011;29964;17.182;-96.766;2022-12-15T00:01:00;2.73;;;1.90;;
44272;SDS011;29964;17.182;-96.766;2022-12-15T00:03:46;13.27;;;2.67;;
44272;SDS011;29964;17.182;-96.766;2022-12-15T00:06:30;3.45;;;2.30;;
44272;SDS011;29964;17.182;-96.766;2022-12-15T00:12:00;4.07;;;2.20;;
44272;SDS011;29964;17.182;-96.766;2022-12-15T00:14:45;10.70;;;2.22;;
44272;SDS011;29964;17.182;-96.766;2022-12-15T00:17:30;9.67;;;2.47;;
44272;SDS011;29964;17.182;-96.766;2022-12-15T00:20:15;2.20;;;1.70;;
44272;SDS011;29964;17.182;-96.766;2022-12-15T00:23:11;4.53;;;1.70;;
44272;SDS011;29964;17.182;-96.766;2022-12-15T00:25:56;3.83;;;1.83;;
44272;SDS011;29964;17.182;-96.766;2022-12-15T00:31:26;9.00;;;2.00;;
44272;SDS011;29964;17.182;-96.766;2022-12-15T00:34:11;2.53;;;1.93;;
44272;SDS011;29964;17.182;-96.766;2022-12-15T00:36:56;2.40;;;1.63;;
44272;SDS011;29964;17.182;-96.766;2022-12-15T00:39:41;5.60;;;2.23;;
44272;SDS011;29964;17.182;-96.766;2022-12-15T00:42:08;3.37;;;2.23;;
44272;SDS011;29964;17.182;-96.766;2022-12-15T00:44:35;3.03;;;2.07;;
44272;SDS011;29964;17.182;-96.766;2022-12-15T00:47:02;3.87;;;2.40;;
44272;SDS011;29964;17.182;-96.766;2022-12-15T00:49:29;3.00;;;1.90;;
44272;SDS011;29964;17.182;-96.766;2022-12-15T00:52:15;3.00;;;2.00;;
44272;SDS011;29964;17.182;-96.766;2022-12-15T00:55:00;3.97;;;1.97;;
44272;SDS011;29964;17.182;-96.766;2022-12-15T00:57:45;3.55;;;1.55;;
44272;SDS011;29964;17.182;-96.766;2022-12-15T01:03:21;3.27;;;1.47;;
44272;SDS011;29964;17.182;-96.766;2022-12-15T01:06:07;3.27;;;2.27;;
44272;SDS011;29964;17.182;-96.766;2022-12-15T01:08:52;2.10;;;1.30;;
44272;SDS011;29964;17.182;-96.766;2022-12-15T01:11:38;1.30;;;1.03;;
44272;SDS011;29964;17.182;-96.766;2022-12-15T01:14:23;4.93;;;1.73;;
44272;SDS011;29964;17.182;-96.766;2022-12-15T01:17:09;2.53;;;1.63;;
44272;SDS011;29964;17.182;-96.766;2022-12-15T01:22:38;2.63;;;1.73;;
44272;SDS011;29964;17.182;-96.766;2022-12-15T01:25:06;2.07;;;1.50;;
44272;SDS011;29964;17.182;-96.766;2022-12-15T01:27:33;3.20;;;1.40;;
44272;SDS011;29964;17.182;-96.766;2022-12-15T01:30:00;2.10;;;1.33;;
44272;SDS011;29964;17.182;-96.766;2022-12-15T01:32:27;2.50;;;1.80;;
44272;SDS011;29964;17.182;-96.766;2022-12-15T01:34:53;10.23;;;1.83;;
44272;SDS011;29964;17.182;-96.766;2022-12-15T01:37:20;1.73;;;1.30;;
44272;SDS011;29964;17.182;-96.766;2022-12-15T01:39:47;2.80;;;2.23;;
44272;SDS011;29964;17.182;-96.766;2022-12-15T01:42:32;1.27;;;1.08;;
44272;SDS011;29964;17.182;-96.766;2022-12-15T01:50:12;3.53;;;1.60;;
44272;SDS011;29964;17.182;-96.766;2022-12-15T01:52:40;7.70;;;1.73;;
44272;SDS011;29964;17.182;-96.766;2022-12-15T01:55:07;3.23;;;2.43;;
44272;SDS011;29964;17.182;-96.766;2022-12-15T01:57:34;2.07;;;1.67;;
44272;SDS011;29964;17.182;-96.766;2022-12-15T02:00:03;2.60;;;1.50;;
44272;SDS011;29964;17.182;-96.766;2022-12-15T02:02:30;4.00;;;1.90;;
44272;SDS011;29964;17.182;-96.766;2022-12-15T02:04:58;3.43;;;1.60;;
44272;SDS011;29964;17.182;-96.766;2022-12-15T02:07:26;9.10;;;1.70;;
44272;SDS011;29964;17.182;-96.766;2022-12-15T02:09:53;1.93;;;1.47;;
44272;SDS011;29964;17.182;-96.766;2022-12-15T02:17:40;4.60;;;1.88;;
44272;SDS011;29964;17.182;-96.766;2022-12-15T02:25:38;4.43;;;1.83;;
44272;SDS011;29964;17.182;-96.766;2022-12-15T02:28:10;3.30;;;1.57;;
44272;SDS011;29964;17.182;-96.766;2022-12-15T02:30:40;4.80;;;2.73;;
44272;SDS011;29964;17.182;-96.766;2022-12-15T02:33:11;8.10;;;2.60;;
44272;SDS011;29964;17.182;-96.766;2022-12-15T02:35:43;5.43;;;3.27;;
44272;SDS011;29964;17.182;-96.766;2022-12-15T02:38:11;1.77;;;1.10;;
44272;SDS011;29964;17.182;-96.766;2022-12-15T02:40:38;2.87;;;2.07;;
44272;SDS011;29964;17.182;-96.766;2022-12-15T02:43:05;2.47;;;1.67;;
44272;SDS011;29964;17.182;-96.766;2022-12-15T02:48:30;2.73;;;2.10;;
44272;SDS011;29964;17.182;-96.766;2022-12-15T02:51:16;11.70;;;2.40;;
44272;SDS011;29964;17.182;-96.766;2022-12-15T02:53:57;7.67;;;1.47;;
44272;SDS011;29964;17.182;-96.766;2022-12-15T03:01:43;3.97;;;2.43;;
44272;SDS011;29964;17.182;-96.766;2022-12-15T03:04:12;4.03;;;2.33;;
44272;SDS011;29964;17.182;-96.766;2022-12-15T03:06:38;2.03;;;1.57;;
44272;SDS011;29964;17.182;-96.766;2022-12-15T03:09:05;4.27;;;2.17;;
44272;SDS011;29964;17.182;-96.766;2022-12-15T03:11:32;3.30;;;1.53;;
44272;SDS011;29964;17.182;-96.766;2022-12-15T03:13:59;1.93;;;1.20;;
44272;SDS011;29964;17.182;-96.766;2022-12-15T03:16:26;1.73;;;1.20;;
44272;SDS011;29964;17.182;-96.766;2022-12-15T03:18:52;3.33;;;1.53;;
44272;SDS011;29964;17.182;-96.766;2022-12-15T03:21:19;6.60;;;3.30;;
44272;SDS011;29964;17.182;-96.766;2022-12-15T03:23:46;4.63;;;3.00;;
44272;SDS011;29964;17.182;-96.766;2022-12-15T03:26:12;6.30;;;3.03;;
44272;SDS011;29964;17.182;-96.766;2022-12-15T03:28:40;1.40;;;1.17;;
44272;SDS011;29964;17.182;-96.766;2022-12-15T03:31:07;2.50;;;1.73;;
44272;SDS011;29964;17.182;-96.766;2022-12-15T03:33:34;4.47;;;3.00;;
44272;SDS011;29964;17.182;-96.766;2022-12-15T03:36:00;2.37;;;1.73;;
44272;SDS011;29964;17.182;-96.766;2022-12-15T03:38:27;1.50;;;1.37;;
44272;SDS011;29964;17.182;-96.766;2022-12-15T03:40:54;4.23;;;2.03;;
44272;SDS011;29964;17.182;-96.766;2022-12-15T03:43:20;2.27;;;1.70;;
44272;SDS011;29964;17.182;-96.766;2022-12-15T03:45:47;2.10;;;1.50;;
44272;SDS011;29964;17.182;-96.766;2022-12-15T03:48:14;2.53;;;1.70;;
44272;SDS011;29964;17.182;-96.766;2022-12-15T03:50:40;3.97;;;1.90;;
44272;SDS011;29964;17.182;-96.766;2022-12-15T03:53:08;4.90;;;3.07;;
44272;SDS011;29964;17.182;-96.766;2022-12-15T03:55:35;3.70;;;2.40;;
44272;SDS011;29964;17.182;-96.766;2022-12-15T03:58:02;2.67;;;1.47;;
44272;SDS011;29964;17.182;-96.766;2022-12-15T04:00:28;1.70;;;1.27;;
44272;SDS011;29964;17.182;-96.766;2022-12-15T04:02:55;5.60;;;3.07;;
44272;SDS011;29964;17.182;-96.766;2022-12-15T04:05:23;2.07;;;1.77;;
44272;SDS011;29964;17.182;-96.766;2022-12-15T04:07:51;6.13;;;2.57;;
44272;SDS011;29964;17.182;-96.766;2022-12-15T04:10:17;1.47;;;1.30;;
44272;SDS011;29964;17.182;-96.766;2022-12-15T04:12:44;4.10;;;2.50;;
44272;SDS011;29964;17.182;-96.766;2022-12-15T04:15:11;4.17;;;2.47;;
44272;SDS011;29964;17.182;-96.766;2022-12-15T04:17:38;6.57;;;2.97;;
44272;SDS011;29964;17.182;-96.766;2022-12-15T04:20:05;22.80;;;2.83;;
44272;SDS011;29964;17.182;-96.766;2022-12-15T04:22:39;3.17;;;2.07;;
44272;SDS011;29964;17.182;-96.766;2022-12-15T04:25:06;3.80;;;3.00;;
44272;SDS011;29964;17.182;-96.766;2022-12-15T04:27:52;3.00;;;2.23;;
44272;SDS011;29964;17.182;-96.766;2022-12-15T04:30:37;5.35;;;2.25;;
44272;SDS011;29964;17.182;-96.766;2022-12-15T04:33:22;2.80;;;2.07;;
44272;SDS011;29964;17.182;-96.766;2022-12-15T04:38:52;3.67;;;2.83;;
44272;SDS011;29964;17.182;-96.766;2022-12-15T04:41:37;2.63;;;1.67;;
44272;SDS011;29964;17.182;-96.766;2022-12-15T04:44:23;3.25;;;2.53;;
44272;SDS011;29964;17.182;-96.766;2022-12-15T04:47:08;1.95;;;1.25;;
44272;SDS011;29964;17.182;-96.766;2022-12-15T04:49:53;4.07;;;2.63;;
44272;SDS011;29964;17.182;-96.766;2022-12-15T04:52:38;5.63;;;3.00;;
44272;SDS011;29964;17.182;-96.766;2022-12-15T04:55:23;2.38;;;1.90;;
44272;SDS011;29964;17.182;-96.766;2022-12-15T04:58:08;3.30;;;2.22;;
44272;SDS011;29964;17.182;-96.766;2022-12-15T05:00:55;2.42;;;1.65;;
44272;SDS011;29964;17.182;-96.766;2022-12-15T05:03:41;5.20;;;2.97;;
44272;SDS011;29964;17.182;-96.766;2022-12-15T05:06:26;3.92;;;3.10;;
44272;SDS011;29964;17.182;-96.766;2022-12-15T05:09:11;3.38;;;2.08;;
44272;SDS011;29964;17.182;-96.766;2022-12-15T05:11:56;4.05;;;3.10;;
44272;SDS011;29964;17.182;-96.766;2022-12-15T05:14:41;2.03;;;1.60;;
44272;SDS011;29964;17.182;-96.766;2022-12-15T05:17:27;3.90;;;2.85;;
44272;SDS011;29964;17.182;-96.766;2022-12-15T05:20:13;3.83;;;1.93;;
44272;SDS011;29964;17.182;-96.766;2022-12-15T05:22:58;2.08;;;1.75;;
44272;SDS011;29964;17.182;-96.766;2022-12-15T05:25:43;3.00;;;2.60;;
44272;SDS011;29964;17.182;-96.766;2022-12-15T05:28:29;5.60;;;3.13;;
44272;SDS011;29964;17.182;-96.766;2022-12-15T05:31:14;2.97;;;2.38;;
44272;SDS011;29964;17.182;-96.766;2022-12-15T05:33:59;9.18;;;2.97;;
44272;SDS011;29964;17.182;-96.766;2022-12-15T05:36:26;3.40;;;2.13;;
44272;SDS011;29964;17.182;-96.766;2022-12-15T05:38:52;2.90;;;2.27;;
44272;SDS011;29964;17.182;-96.766;2022-12-15T05:41:19;4.93;;;3.10;;
44272;SDS011;29964;17.182;-96.766;2022-12-15T05:43:46;2.87;;;2.00;;
44272;SDS011;29964;17.182;-96.766;2022-12-15T05:46:13;3.47;;;2.33;;
44272;SDS011;29964;17.182;-96.766;2022-12-15T05:48:40;2.33;;;1.90;;
44272;SDS011;29964;17.182;-96.766;2022-12-15T05:51:07;4.63;;;3.13;;
44272;SDS011;29964;17.182;-96.766;2022-12-15T05:53:35;4.73;;;2.43;;
44272;SDS011;29964;17.182;-96.766;2022-12-15T05:56:03;5.77;;;3.10;;
44272;SDS011;29964;17.182;-96.766;2022-12-15T05:58:30;5.30;;;2.73;;
44272;SDS011;29964;17.182;-96.766;2022-12-15T06:01:10;3.43;;;2.83;;
44272;SDS011;29964;17.182;-96.766;2022-12-15T06:03:37;1.83;;;1.60;;
44272;SDS011;29964;17.182;-96.766;2022-12-15T06:06:05;6.43;;;2.20;;
44272;SDS011;29964;17.182;-96.766;2022-12-15T06:08:33;3.60;;;2.20;;
44272;SDS011;29964;17.182;-96.766;2022-12-15T06:11:00;1.93;;;1.73;;
44272;SDS011;29964;17.182;-96.766;2022-12-15T06:13:27;3.17;;;2.10;;
44272;SDS011;29964;17.182;-96.766;2022-12-15T06:16:02;2.90;;;1.70;;
44272;SDS011;29964;17.182;-96.766;2022-12-15T06:18:30;2.10;;;1.67;;
44272;SDS011;29964;17.182;-96.766;2022-12-15T06:21:01;1.27;;;1.13;;
44272;SDS011;29964;17.182;-96.766;2022-12-15T06:23:29;2.00;;;1.30;;
44272;SDS011;29964;17.182;-96.766;2022-12-15T06:25:57;3.33;;;2.27;;
44272;SDS011;29964;17.182;-96.766;2022-12-15T06:28:24;3.40;;;2.23;;
44272;SDS011;29964;17.182;-96.766;2022-12-15T06:30:51;2.00;;;1.50;;
44272;SDS011;29964;17.182;-96.766;2022-12-15T06:33:18;2.03;;;1.30;;
44272;SDS011;29964;17.182;-96.766;2022-12-15T06:35:45;3.07;;;2.47;;
44272;SDS011;29964;17.182;-96.766;2022-12-15T06:38:12;5.50;;;2.87;;
44272;SDS011;29964;17.182;-96.766;2022-12-15T06:40:39;4.87;;;2.17;;
44272;SDS011;29964;17.182;-96.766;2022-12-15T06:43:06;3.03;;;2.20;;
44272;SDS011;29964;17.182;-96.766;2022-12-15T06:45:33;3.10;;;2.57;;
44272;SDS011;29964;17.182;-96.766;2022-12-15T06:48:00;4.10;;;1.87;;
44272;SDS011;29964;17.182;-96.766;2022-12-15T06:50:26;4.30;;;3.37;;
44272;SDS011;29964;17.182;-96.766;2022-12-15T06:52:53;3.77;;;2.33;;
44272;SDS011;29964;17.182;-96.766;2022-12-15T06:55:20;3.20;;;2.40;;
44272;SDS011;29964;17.182;-96.766;2022-12-15T06:57:47;4.17;;;2.73;;
44272;SDS011;29964;17.182;-96.766;2022-12-15T07:00:14;4.33;;;2.60;;
44272;SDS011;29964;17.182;-96.766;2022-12-15T07:02:41;4.03;;;3.00;;
44272;SDS011;29964;17.182;-96.766;2022-12-15T07:05:08;1.63;;;1.53;;
44272;SDS011;29964;17.182;-96.766;2022-12-15T07:07:34;2.00;;;1.80;;
44272;SDS011;29964;17.182;-96.766;2022-12-15T07:10:01;3.70;;;2.67;;
44272;SDS011;29964;17.182;-96.766;2022-12-15T07:12:28;3.00;;;2.20;;
44272;SDS011;29964;17.182;-96.766;2022-12-15T07:14:54;3.20;;;2.17;;
44272;SDS011;29964;17.182;-96.766;2022-12-15T07:17:21;5.37;;;3.70;;
44272;SDS011;29964;17.182;-96.766;2022-12-15T07:19:48;4.17;;;1.97;;
44272;SDS011;29964;17.182;-96.766;2022-12-15T07:22:15;6.20;;;4.07;;
44272;SDS011;29964;17.182;-96.766;2022-12-15T07:24:42;5.90;;;3.90;;
44272;SDS011;29964;17.182;-96.766;2022-12-15T07:27:08;7.30;;;4.87;;
44272;SDS011;29964;17.182;-96.766;2022-12-15T07:29:35;8.33;;;4.90;;
44272;SDS011;29964;17.182;-96.766;2022-12-15T07:32:02;7.63;;;6.27;;
44272;SDS011;29964;17.182;-96.766;2022-12-15T07:34:28;4.80;;;3.73;;
44272;SDS011;29964;17.182;-96.766;2022-12-15T07:36:55;4.53;;;3.47;;
44272;SDS011;29964;17.182;-96.766;2022-12-15T07:39:21;4.33;;;2.90;;
44272;SDS011;29964;17.182;-96.766;2022-12-15T07:41:48;10.40;;;3.90;;
44272;SDS011;29964;17.182;-96.766;2022-12-15T07:44:15;2.30;;;1.63;;
44272;SDS011;29964;17.182;-96.766;2022-12-15T07:46:42;5.57;;;3.53;;
44272;SDS011;29964;17.182;-96.766;2022-12-15T07:49:11;3.13;;;2.60;;
44272;SDS011;29964;17.182;-96.766;2022-12-15T07:51:38;6.13;;;4.27;;
44272;SDS011;29964;17.182;-96.766;2022-12-15T07:54:05;5.10;;;3.00;;
44272;SDS011;29964;17.182;-96.766;2022-12-15T07:56:32;5.30;;;3.33;;
44272;SDS011;29964;17.182;-96.766;2022-12-15T07:58:59;3.10;;;2.60;;
44272;SDS011;29964;17.182;-96.766;2022-12-15T08:01:25;3.23;;;1.93;;
44272;SDS011;29964;17.182;-96.766;2022-12-15T08:03:52;5.13;;;3.20;;
44272;SDS011;29964;17.182;-96.766;2022-12-15T08:06:19;3.30;;;2.37;;
44272;SDS011;29964;17.182;-96.766;2022-12-15T08:08:46;5.90;;;2.80;;
44272;SDS011;29964;17.182;-96.766;2022-12-15T08:11:13;2.93;;;2.00;;
44272;SDS011;29964;17.182;-96.766;2022-12-15T08:13:41;10.20;;;1.70;;
44272;SDS011;29964;17.182;-96.766;2022-12-15T08:16:08;3.40;;;2.60;;
44272;SDS011;29964;17.182;-96.766;2022-12-15T08:18:35;1.80;;;1.40;;
44272;SDS011;29964;17.182;-96.766;2022-12-15T08:21:07;3.17;;;2.33;;
44272;SDS011;29964;17.182;-96.766;2022-12-15T08:23:34;2.43;;;2.23;;
44272;SDS011;29964;17.182;-96.766;2022-12-15T08:26:05;2.43;;;1.93;;
44272;SDS011;29964;17.182;-96.766;2022-12-15T08:28:33;3.63;;;2.90;;
44272;SDS011;29964;17.182;-96.766;2022-12-15T08:31:08;2.13;;;1.93;;
44272;SDS011;29964;17.182;-96.766;2022-12-15T08:33:35;3.20;;;2.70;;
44272;SDS011;29964;17.182;-96.766;2022-12-15T08:36:03;3.00;;;2.10;;
44272;SDS011;29964;17.182;-96.766;2022-12-15T08:38:31;6.63;;;1.23;;
44272;SDS011;29964;17.182;-96.766;2022-12-15T08:41:05;2.90;;;2.40;;
44272;SDS011;29964;17.182;-96.766;2022-12-15T08:43:31;4.10;;;2.40;;
44272;SDS011;29964;17.182;-96.766;2022-12-15T08:45:59;4.40;;;2.37;;
44272;SDS011;29964;17.182;-96.766;2022-12-15T08:48:26;3.33;;;2.57;;
44272;SDS011;29964;17.182;-96.766;2022-12-15T08:50:53;6.87;;;1.90;;
44272;SDS011;29964;17.182;-96.766;2022-12-15T08:53:20;3.07;;;2.50;;
44272;SDS011;29964;17.182;-96.766;2022-12-15T08:55:47;3.30;;;2.30;;
44272;SDS011;29964;17.182;-96.766;2022-12-15T08:58:13;4.57;;;2.27;;
44272;SDS011;29964;17.182;-96.766;2022-12-15T09:00:40;2.47;;;1.97;;
44272;SDS011;29964;17.182;-96.766;2022-12-15T09:03:07;8.37;;;4.00;;
44272;SDS011;29964;17.182;-96.766;2022-12-15T09:05:34;3.60;;;2.70;;
44272;SDS011;29964;17.182;-96.766;2022-12-15T09:08:01;4.00;;;2.30;;
44272;SDS011;29964;17.182;-96.766;2022-12-15T09:10:28;1.40;;;1.30;;
44272;SDS011;29964;17.182;-96.766;2022-12-15T09:12:54;3.37;;;2.23;;
44272;SDS011;29964;17.182;-96.766;2022-12-15T09:15:21;3.63;;;2.93;;
44272;SDS011;29964;17.182;-96.766;2022-12-15T09:17:48;5.63;;;3.17;;
44272;SDS011;29964;17.182;-96.766;2022-12-15T09:20:14;3.03;;;2.40;;
44272;SDS011;29964;17.182;-96.766;2022-12-15T09:22:41;4.63;;;3.37;;
44272;SDS011;29964;17.182;-96.766;2022-12-15T09:25:08;3.63;;;2.33;;
44272;SDS011;29964;17.182;-96.766;2022-12-15T09:27:35;3.07;;;2.17;;
44272;SDS011;29964;17.182;-96.766;2022-12-15T09:30:01;2.30;;;2.10;;
44272;SDS011;29964;17.182;-96.766;2022-12-15T09:32:28;3.27;;;2.33;;
44272;SDS011;29964;17.182;-96.766;2022-12-15T09:34:55;3.57;;;2.73;;
44272;SDS011;29964;17.182;-96.766;2022-12-15T09:37:22;6.40;;;4.07;;
44272;SDS011;29964;17.182;-96.766;2022-12-15T09:39:49;4.47;;;3.57;;
44272;SDS011;29964;17.182;-96.766;2022-12-15T09:42:25;3.03;;;2.33;;
44272;SDS011;29964;17.182;-96.766;2022-12-15T09:45:04;5.73;;;3.57;;
44272;SDS011;29964;17.182;-96.766;2022-12-15T09:47:34;3.10;;;2.13;;
44272;SDS011;29964;17.182;-96.766;2022-12-15T09:50:04;4.27;;;3.47;;
44272;SDS011;29964;17.182;-96.766;2022-12-15T09:55:15;2.47;;;1.53;;
44272;SDS011;29964;17.182;-96.766;2022-12-15T10:00:14;1.57;;;1.43;;
44272;SDS011;29964;17.182;-96.766;2022-12-15T10:03:01;1.30;;;1.20;;
44272;SDS011;29964;17.182;-96.766;2022-12-15T10:08:15;1.67;;;1.50;;
44272;SDS011;29964;17.182;-96.766;2022-12-15T10:13:28;1.80;;;1.37;;
44272;SDS011;29964;17.182;-96.766;2022-12-15T10:15:58;1.77;;;1.60;;
44272;SDS011;29964;17.182;-96.766;2022-12-15T10:18:29;2.70;;;2.10;;
44272;SDS011;29964;17.182;-96.766;2022-12-15T10:20:58;3.33;;;3.03;;
44272;SDS011;29964;17.182;-96.766;2022-12-15T10:23:26;3.23;;;2.10;;
44272;SDS011;29964;17.182;-96.766;2022-12-15T10:25:57;2.60;;;1.97;;
44272;SDS011;29964;17.182;-96.766;2022-12-15T10:30:54;3.63;;;2.80;;
44272;SDS011;29964;17.182;-96.766;2022-12-15T10:33:24;2.50;;;2.17;;
44272;SDS011;29964;17.182;-96.766;2022-12-15T10:35:54;2.23;;;1.77;;
44272;SDS011;29964;17.182;-96.766;2022-12-15T10:38:34;3.10;;;1.63;;
44272;SDS011;29964;17.182;-96.766;2022-12-15T10:41:07;2.92;;;2.22;;
44272;SDS011;29964;17.182;-96.766;2022-12-15T10:43:44;14.27;;;3.83;;
44272;SDS011;29964;17.182;-96.766;2022-12-15T10:46:15;2.37;;;2.17;;
44272;SDS011;29964;17.182;-96.766;2022-12-15T10:51:16;3.70;;;2.90;;
44272;SDS011;29964;17.182;-96.766;2022-12-15T10:54:02;4.07;;;2.73;;
44272;SDS011;29964;17.182;-96.766;2022-12-15T10:56:30;1.93;;;1.70;;
44272;SDS011;29964;17.182;-96.766;2022-12-15T10:58:58;4.60;;;2.43;;
44272;SDS011;29964;17.182;-96.766;2022-12-15T11:01:27;1.87;;;1.67;;
44272;SDS011;29964;17.182;-96.766;2022-12-15T11:03:55;3.50;;;2.37;;
44272;SDS011;29964;17.182;-96.766;2022-12-15T11:06:23;2.40;;;2.13;;
44272;SDS011;29964;17.182;-96.766;2022-12-15T11:08:51;2.07;;;1.67;;
44272;SDS011;29964;17.182;-96.766;2022-12-15T11:11:32;3.60;;;2.63;;
44272;SDS011;29964;17.182;-96.766;2022-12-15T11:14:21;2.80;;;2.50;;
44272;SDS011;29964;17.182;-96.766;2022-12-15T11:16:57;3.87;;;2.60;;
44272;SDS011;29964;17.182;-96.766;2022-12-15T11:21:52;4.20;;;2.63;;
44272;SDS011;29964;17.182;-96.766;2022-12-15T11:25:08;9.57;;;1.80;;
44272;SDS011;29964;17.182;-96.766;2022-12-15T11:29:55;3.23;;;2.90;;
44272;SDS011;29964;17.182;-96.766;2022-12-15T11:32:25;3.33;;;2.90;;
44272;SDS011;29964;17.182;-96.766;2022-12-15T11:34:53;5.70;;;2.87;;
44272;SDS011;29964;17.182;-96.766;2022-12-15T11:38:02;4.30;;;3.23;;
44272;SDS011;29964;17.182;-96.766;2022-12-15T11:45:34;3.00;;;2.27;;
44272;SDS011;29964;17.182;-96.766;2022-12-15T11:48:16;4.13;;;2.25;;
44272;SDS011;29964;17.182;-96.766;2022-12-15T11:56:02;1.63;;;1.45;;
44272;SDS011;29964;17.182;-96.766;2022-12-15T11:58:40;3.87;;;2.07;;
44272;SDS011;29964;17.182;-96.766;2022-12-15T12:01:21;1.90;;;1.70;;
44272;SDS011;29964;17.182;-96.766;2022-12-15T12:04:01;3.53;;;2.67;;
44272;SDS011;29964;17.182;-96.766;2022-12-15T12:06:33;5.20;;;3.20;;
44272;SDS011;29964;17.182;-96.766;2022-12-15T12:09:11;2.47;;;1.80;;
44272;SDS011;29964;17.182;-96.766;2022-12-15T12:11:50;2.80;;;1.93;;
44272;SDS011;29964;17.182;-96.766;2022-12-15T12:22:10;3.40;;;2.42;;
44272;SDS011;29964;17.182;-96.766;2022-12-15T12:24:39;4.10;;;3.07;;
44272;SDS011;29964;17.182;-96.766;2022-12-15T12:27:12;5.93;;;3.53;;
44272;SDS011;29964;17.182;-96.766;2022-12-15T12:29:46;3.08;;;2.78;;
44272;SDS011;29964;17.182;-96.766;2022-12-15T12:35:11;13.67;;;2.57;;
44272;SDS011;29964;17.182;-96.766;2022-12-15T12:40:13;1.63;;;1.53;;
44272;SDS011;29964;17.182;-96.766;2022-12-15T12:43:01;3.90;;;3.40;;
44272;SDS011;29964;17.182;-96.766;2022-12-15T12:48:07;3.63;;;2.97;;
44272;SDS011;29964;17.182;-96.766;2022-12-15T12:50:37;2.95;;;2.65;;
44272;SDS011;29964;17.182;-96.766;2022-12-15T12:53:04;4.93;;;2.30;;
44272;SDS011;29964;17.182;-96.766;2022-12-15T12:55:38;3.43;;;2.70;;
44272;SDS011;29964;17.182;-96.766;2022-12-15T13:03:43;3.63;;;2.43;;
44272;SDS011;29964;17.182;-96.766;2022-12-15T13:08:55;5.03;;;2.63;;
44272;SDS011;29964;17.182;-96.766;2022-12-15T13:14:11;2.58;;;2.22;;
44272;SDS011;29964;17.182;-96.766;2022-12-15T13:16:38;7.57;;;4.03;;
44272;SDS011;29964;17.182;-96.766;2022-12-15T13:19:06;4.17;;;3.30;;
44272;SDS011;29964;17.182;-96.766;2022-12-15T13:24:21;4.67;;;3.93;;
44272;SDS011;29964;17.182;-96.766;2022-12-15T13:26:51;3.90;;;3.17;;
44272;SDS011;29964;17.182;-96.766;2022-12-15T13:29:19;7.67;;;4.10;;
44272;SDS011;29964;17.182;-96.766;2022-12-15T13:31:49;10.70;;;4.20;;
44272;SDS011;29964;17.182;-96.766;2022-12-15T13:34:21;4.70;;;4.20;;
44272;SDS011;29964;17.182;-96.766;2022-12-15T13:36:50;9.80;;;5.00;;
44272;SDS011;29964;17.182;-96.766;2022-12-15T13:46:43;6.53;;;4.03;;
44272;SDS011;29964;17.182;-96.766;2022-12-15T13:49:12;7.17;;;5.03;;
44272;SDS011;29964;17.182;-96.766;2022-12-15T13:51:43;6.60;;;4.37;;
44272;SDS011;29964;17.182;-96.766;2022-12-15T13:54:14;10.40;;;5.37;;
44272;SDS011;29964;17.182;-96.766;2022-12-15T13:56:50;22.20;;;10.47;;
44272;SDS011;29964;17.182;-96.766;2022-12-15T13:59:34;23.07;;;9.23;;
44272;SDS011;29964;17.182;-96.766;2022-12-15T14:02:19;13.02;;;8.15;;
44272;SDS011;29964;17.182;-96.766;2022-12-15T14:07:34;20.73;;;13.63;;
44272;SDS011;29964;17.182;-96.766;2022-12-15T14:10:02;20.30;;;13.70;;
44272;SDS011;29964;17.182;-96.766;2022-12-15T14:12:29;35.93;;;18.37;;
44272;SDS011;29964;17.182;-96.766;2022-12-15T14:14:56;25.67;;;14.27;;
44272;SDS011;29964;17.182;-96.766;2022-12-15T14:17:22;36.63;;;16.83;;
44272;SDS011;29964;17.182;-96.766;2022-12-15T14:19:49;47.30;;;19.13;;
44272;SDS011;29964;17.182;-96.766;2022-12-15T14:22:26;30.90;;;19.97;;
44272;SDS011;29964;17.182;-96.766;2022-12-15T14:24:57;25.97;;;13.20;;
44272;SDS011;29964;17.182;-96.766;2022-12-15T14:27:25;29.00;;;11.73;;
44272;SDS011;29964;17.182;-96.766;2022-12-15T14:35:30;10.60;;;6.23;;
44272;SDS011;29964;17.182;-96.766;2022-12-15T14:38:02;10.90;;;6.97;;
44272;SDS011;29964;17.182;-96.766;2022-12-15T14:40:33;27.13;;;8.10;;
44272;SDS011;29964;17.182;-96.766;2022-12-15T14:42:59;11.60;;;6.90;;
44272;SDS011;29964;17.182;-96.766;2022-12-15T14:45:27;9.20;;;5.17;;
44272;SDS011;29964;17.182;-96.766;2022-12-15T14:47:55;7.53;;;6.00;;
44272;SDS011;29964;17.182;-96.766;2022-12-15T14:50:23;12.67;;;5.10;;
44272;SDS011;29964;17.182;-96.766;2022-12-15T14:52:58;11.03;;;5.93;;
44272;SDS011;29964;17.182;-96.766;2022-12-15T14:57:52;8.53;;;6.37;;
44272;SDS011;29964;17.182;-96.766;2022-12-15T15:00:32;7.17;;;4.00;;
44272;SDS011;29964;17.182;-96.766;2022-12-15T15:05:54;7.53;;;5.27;;
44272;SDS011;29964;17.182;-96.766;2022-12-15T15:08:29;8.50;;;3.97;;
44272;SDS011;29964;17.182;-96.766;2022-12-15T15:10:57;7.22;;;4.13;;
44272;SDS011;29964;17.182;-96.766;2022-12-15T15:13:26;4.57;;;3.50;;
44272;SDS011;29964;17.182;-96.766;2022-12-15T15:15:56;8.70;;;5.27;;
44272;SDS011;29964;17.182;-96.766;2022-12-15T15:18:26;10.17;;;3.87;;
44272;SDS011;29964;17.182;-96.766;2022-12-15T15:20:55;26.13;;;4.60;;
44272;SDS011;29964;17.182;-96.766;2022-12-15T15:23:24;3.63;;;2.83;;
44272;SDS011;29964;17.182;-96.766;2022-12-15T15:25:51;5.67;;;3.77;;
44272;SDS011;29964;17.182;-96.766;2022-12-15T15:30:53;7.07;;;4.10;;
44272;SDS011;29964;17.182;-96.766;2022-12-15T15:33:20;5.38;;;3.58;;
44272;SDS011;29964;17.182;-96.766;2022-12-15T15:35:51;5.17;;;3.37;;
44272;SDS011;29964;17.182;-96.766;2022-12-15T15:40:49;3.70;;;2.83;;
44272;SDS011;29964;17.182;-96.766;2022-12-15T15:43:16;8.33;;;3.47;;
44272;SDS011;29964;17.182;-96.766;2022-12-15T15:45:43;7.20;;;2.87;;
44272;SDS011;29964;17.182;-96.766;2022-12-15T15:48:14;6.83;;;3.80;;
44272;SDS011;29964;17.182;-96.766;2022-12-15T15:50:42;4.97;;;2.93;;
44272;SDS011;29964;17.182;-96.766;2022-12-15T15:53:11;3.67;;;2.47;;
44272;SDS011;29964;17.182;-96.766;2022-12-15T15:55:40;4.70;;;2.60;;
44272;SDS011;29964;17.182;-96.766;2022-12-15T15:58:09;4.63;;;2.90;;
44272;SDS011;29964;17.182;-96.766;2022-12-15T16:00:35;4.20;;;2.07;;
44272;SDS011;29964;17.182;-96.766;2022-12-15T16:03:02;3.77;;;2.73;;
44272;SDS011;29964;17.182;-96.766;2022-12-15T16:05:29;8.33;;;3.17;;
44272;SDS011;29964;17.182;-96.766;2022-12-15T16:07:55;3.43;;;2.50;;
44272;SDS011;29964;17.182;-96.766;2022-12-15T16:10:22;4.37;;;2.10;;
44272;SDS011;29964;17.182;-96.766;2022-12-15T16:12:50;5.37;;;2.87;;
44272;SDS011;29964;17.182;-96.766;2022-12-15T16:15:21;3.70;;;2.47;;
44272;SDS011;29964;17.182;-96.766;2022-12-15T16:17:50;13.20;;;3.90;;
44272;SDS011;29964;17.182;-96.766;2022-12-15T16:20:17;7.30;;;4.03;;
44272;SDS011;29964;17.182;-96.766;2022-12-15T16:22:45;4.27;;;3.10;;
44272;SDS011;29964;17.182;-96.766;2022-12-15T16:25:15;8.23;;;3.00;;
44272;SDS011;29964;17.182;-96.766;2022-12-15T16:27:42;3.93;;;2.43;;
44272;SDS011;29964;17.182;-96.766;2022-12-15T16:32:42;6.23;;;3.60;;
44272;SDS011;29964;17.182;-96.766;2022-12-15T16:35:09;3.03;;;2.30;;
44272;SDS011;29964;17.182;-96.766;2022-12-15T16:37:36;4.50;;;2.60;;
44272;SDS011;29964;17.182;-96.766;2022-12-15T16:40:11;12.33;;;2.33;;
44272;SDS011;29964;17.182;-96.766;2022-12-15T16:42:38;11.70;;;3.40;;
44272;SDS011;29964;17.182;-96.766;2022-12-15T16:45:12;7.13;;;3.17;;
44272;SDS011;29964;17.182;-96.766;2022-12-15T16:47:39;3.33;;;2.63;;
44272;SDS011;29964;17.182;-96.766;2022-12-15T16:50:07;4.50;;;3.47;;
44272;SDS011;29964;17.182;-96.766;2022-12-15T16:52:34;4.70;;;2.47;;